createdAt,value
2022-12-04T00:01:24.232Z,102313.66
2022-12-04T00:03:56.221Z,102315.56
2022-12-04T00:06:23.437Z,102318.31
2022-12-04T00:08:51.334Z,102316.47
2022-12-04T00:11:22.312Z,102317.34
2022-12-04T00:13:49.514Z,102320.00
2022-12-04T00:16:19.934Z,102319.84
2022-12-04T00:18:47.295Z,102317.94
2022-12-04T00:21:16.007Z,102327.94
2022-12-04T00:23:43.821Z,102327.03
2022-12-04T00:26:16.934Z,102324.34
2022-12-04T00:28:44.552Z,102334.22
2022-12-04T00:31:15.238Z,102328.75
2022-12-04T00:33:42.593Z,102323.44
2022-12-04T00:36:12.374Z,102329.63
2022-12-04T00:38:40.313Z,102334.25
2022-12-04T00:41:16.155Z,102332.34
2022-12-04T00:43:44.632Z,102330.53
2022-12-04T00:46:11.822Z,102336.97
2022-12-04T00:48:39.326Z,102328.88
2022-12-04T00:51:08.668Z,102339.72
2022-12-04T00:53:37.299Z,102338.75
2022-12-04T00:56:10.686Z,102336.91
2022-12-04T00:58:37.958Z,102334.31
2022-12-04T01:01:10.593Z,102331.44
2022-12-04T01:03:41.330Z,102327.97
2022-12-04T01:06:18.616Z,102329.75
2022-12-04T01:08:47.441Z,102328.91
2022-12-04T01:11:15.227Z,102329.63
2022-12-04T01:13:42.164Z,102321.81
2022-12-04T01:16:09.237Z,102331.59
2022-12-04T01:18:36.165Z,102321.72
2022-12-04T01:21:05.598Z,102320.88
2022-12-04T01:23:32.609Z,102332.41
2022-12-04T01:25:59.575Z,102330.72
2022-12-04T01:28:26.800Z,102331.50
2022-12-04T01:31:11.731Z,102327.94
2022-12-04T01:33:39.925Z,102337.75
2022-12-04T01:36:10.296Z,102326.16
2022-12-04T01:38:37.412Z,102325.44
2022-12-04T01:41:05.046Z,102331.47
2022-12-04T01:43:34.159Z,102328.81
2022-12-04T01:46:02.553Z,102338.53
2022-12-04T01:48:50.592Z,102338.50
2022-12-04T01:51:18.913Z,102339.53
2022-12-04T01:53:59.466Z,102337.69
2022-12-04T01:56:37.192Z,102333.38
2022-12-04T01:59:06.750Z,102336.88
2022-12-04T02:01:40.767Z,102343.16
2022-12-04T02:04:07.803Z,102345.69
2022-12-04T02:06:34.697Z,102339.47
2022-12-04T02:09:01.796Z,102334.19
2022-12-04T02:11:34.831Z,102337.72
2022-12-04T02:14:14.971Z,102335.06
2022-12-04T02:16:55.191Z,102335.03
2022-12-04T02:19:40.439Z,102337.69
2022-12-04T02:22:24.143Z,102330.50
2022-12-04T02:25:05.295Z,102323.41
2022-12-04T02:27:52.238Z,102324.25
2022-12-04T02:30:19.126Z,102319.69
2022-12-04T02:33:07.405Z,102319.78
2022-12-04T02:35:42.743Z,102310.84
2022-12-04T02:38:21.175Z,102318.97
2022-12-04T02:41:05.950Z,102321.63
2022-12-04T02:43:49.366Z,102322.59
2022-12-04T02:46:26.442Z,102323.22
2022-12-04T02:48:58.135Z,102325.91
2022-12-04T02:51:28.960Z,102323.25
2022-12-04T02:53:59.932Z,102319.75
2022-12-04T02:56:30.712Z,102321.44
2022-12-04T02:59:02.352Z,102320.47
2022-12-04T03:01:37.053Z,102319.59
2022-12-04T03:04:25.774Z,102316.94
2022-12-04T03:07:05.831Z,102321.38
2022-12-04T03:09:39.160Z,102320.44
2022-12-04T03:12:19.919Z,102317.66
2022-12-04T03:15:03.012Z,102321.41
2022-12-04T03:17:39.604Z,102318.81
2022-12-04T03:20:11.234Z,102319.59
2022-12-04T03:22:41.864Z,102328.53
2022-12-04T03:25:09.681Z,102330.91
2022-12-04T03:27:51.870Z,102330.22
2022-12-04T03:30:22.078Z,102321.25
2022-12-04T03:33:05.066Z,102319.53
2022-12-04T03:35:40.917Z,102328.53
2022-12-04T03:38:19.795Z,102325.81
2022-12-04T03:41:03.532Z,102333.00
2022-12-04T03:43:50.819Z,102331.09
2022-12-04T03:46:28.136Z,102328.34
2022-12-04T03:49:19.244Z,102322.09
2022-12-04T03:51:55.724Z,102324.72
2022-12-04T03:54:35.311Z,102321.13
2022-12-04T03:57:15.715Z,102326.50
2022-12-04T03:59:53.901Z,102332.78
2022-12-04T04:02:28.390Z,102328.31
2022-12-04T04:04:58.942Z,102317.59
2022-12-04T04:07:42.591Z,102321.94
2022-12-04T04:10:29.957Z,102317.16
2022-12-04T04:13:20.728Z,102314.59
2022-12-04T04:16:14.096Z,102314.00
2022-12-04T04:19:01.407Z,102312.16
2022-12-04T04:21:52.224Z,102306.72
2022-12-04T04:24:36.684Z,102316.47
2022-12-04T04:27:04.086Z,102311.16
2022-12-04T04:29:31.287Z,102300.47
2022-12-04T04:32:14.258Z,102306.47
2022-12-04T04:34:40.899Z,102299.44
2022-12-04T04:37:36.776Z,102297.66
2022-12-04T04:40:26.098Z,102300.31
2022-12-04T04:43:11.298Z,102296.69
2022-12-04T04:45:47.404Z,102294.81
2022-12-04T04:48:29.539Z,102302.06
2022-12-04T04:50:58.312Z,102293.13
2022-12-04T04:53:30.718Z,102296.69
2022-12-04T04:55:58.757Z,102287.69
2022-12-04T04:58:25.540Z,102291.31
2022-12-04T05:01:22.635Z,102282.28
2022-12-04T05:03:49.602Z,102289.44
2022-12-04T05:06:16.454Z,102287.53
2022-12-04T05:08:44.321Z,102286.03
2022-12-04T05:11:13.645Z,102284.00
2022-12-04T05:13:40.855Z,102276.97
2022-12-04T05:16:11.278Z,102282.28
2022-12-04T05:18:38.882Z,102285.81
2022-12-04T05:21:17.430Z,102288.53
2022-12-04T05:23:44.503Z,102296.44
2022-12-04T05:26:11.932Z,102293.94
2022-12-04T05:28:40.874Z,102289.97
2022-12-04T05:31:07.821Z,102288.50
2022-12-04T05:33:34.665Z,102293.72
2022-12-04T05:36:04.594Z,102299.22
2022-12-04T05:38:32.557Z,102300.31
2022-12-04T05:41:01.120Z,102292.00
2022-12-04T05:43:28.801Z,102283.91
2022-12-04T05:45:55.576Z,102284.84
2022-12-04T05:48:22.360Z,102286.72
2022-12-04T05:50:49.157Z,102298.31
2022-12-04T05:53:16.197Z,102296.41
2022-12-04T05:55:43.112Z,102300.03
2022-12-04T05:58:10.014Z,102297.56
2022-12-04T06:00:37.219Z,102290.38
2022-12-04T06:03:04.064Z,102282.94
2022-12-04T06:05:32.812Z,102289.34
2022-12-04T06:08:01.100Z,102286.53
2022-12-04T06:10:29.458Z,102288.16
2022-12-04T06:15:40.021Z,102281.94
2022-12-04T06:18:06.809Z,102282.84
2022-12-04T06:20:34.295Z,102278.28
2022-12-04T06:23:01.508Z,102274.47
2022-12-04T06:25:28.586Z,102287.19
2022-12-04T06:27:55.398Z,102275.28
2022-12-04T06:30:23.113Z,102277.06
2022-12-04T06:32:49.956Z,102276.38
2022-12-04T06:35:17.025Z,102276.38
2022-12-04T06:37:44.136Z,102270.19
2022-12-04T06:40:11.517Z,102268.13
2022-12-04T06:42:38.284Z,102267.63
2022-12-04T06:45:06.497Z,102267.50
2022-12-04T06:47:37.601Z,102265.91
2022-12-04T06:50:05.124Z,102258.66
2022-12-04T06:52:34.992Z,102252.53
2022-12-04T06:55:01.943Z,102258.75
2022-12-04T06:57:28.954Z,102260.63
2022-12-04T06:59:55.995Z,102258.66
2022-12-04T07:02:23.137Z,102251.44
2022-12-04T07:04:49.986Z,102262.03
2022-12-04T07:07:16.856Z,102249.38
2022-12-04T07:09:44.301Z,102247.72
2022-12-04T07:12:11.199Z,102241.13
2022-12-04T07:14:38.102Z,102240.31
2022-12-04T07:17:05.411Z,102238.38
2022-12-04T07:19:32.405Z,102236.63
2022-12-04T07:21:59.180Z,102239.34
2022-12-04T07:24:25.915Z,102239.16
2022-12-04T07:26:52.955Z,102244.31
2022-12-04T07:29:19.766Z,102240.72
2022-12-04T07:31:46.675Z,102224.44
2022-12-04T07:34:13.597Z,102239.00
2022-12-04T07:36:40.935Z,102236.25
2022-12-04T07:39:08.166Z,102225.47
2022-12-04T07:41:35.540Z,102229.00
2022-12-04T07:44:02.750Z,102232.53
2022-12-04T07:46:29.573Z,102225.03
2022-12-04T07:48:58.130Z,102217.06
2022-12-04T07:51:29.067Z,102232.34
2022-12-04T07:54:02.690Z,102231.25
2022-12-04T07:56:30.889Z,102220.31
2022-12-04T07:58:57.710Z,102221.44
2022-12-04T08:01:24.772Z,102216.91
2022-12-04T08:03:55.594Z,102215.09
2022-12-04T08:06:24.291Z,102219.09
2022-12-04T08:08:51.894Z,102223.66
2022-12-04T08:11:22.260Z,102226.16
2022-12-04T08:13:53.508Z,102214.94
2022-12-04T08:16:20.514Z,102217.19
2022-12-04T08:18:48.674Z,102217.94
2022-12-04T08:21:20.857Z,102222.34
2022-12-04T08:23:49.628Z,102212.38
2022-12-04T08:26:17.094Z,102216.56
2022-12-04T08:28:44.240Z,102213.94
2022-12-04T08:31:21.642Z,102218.25
2022-12-04T08:33:50.783Z,102216.84
2022-12-04T08:36:20.614Z,102211.38
2022-12-04T08:38:48.667Z,102209.47
2022-12-04T08:41:17.886Z,102202.06
2022-12-04T08:43:45.364Z,102211.81
2022-12-04T08:46:15.152Z,102212.03
2022-12-04T08:48:43.556Z,102208.50
2022-12-04T08:51:16.188Z,102208.91
2022-12-04T08:53:47.359Z,102210.66
2022-12-04T08:56:14.848Z,102210.19
2022-12-04T08:58:41.617Z,102205.13
2022-12-04T09:01:11.549Z,102202.50
2022-12-04T09:03:38.895Z,102206.97
2022-12-04T09:06:06.795Z,102210.88
2022-12-04T09:08:34.301Z,102211.66
2022-12-04T09:11:14.747Z,102208.00
2022-12-04T09:13:42.625Z,102213.59
2022-12-04T09:16:15.411Z,102218.03
2022-12-04T09:18:42.686Z,102213.94
2022-12-04T09:21:11.691Z,102215.13
2022-12-04T09:23:39.778Z,102216.03
2022-12-04T09:26:18.735Z,102211.13
2022-12-04T09:28:46.480Z,102215.50
2022-12-04T09:31:13.249Z,102212.50
2022-12-04T09:33:40.147Z,102220.09
2022-12-04T09:36:16.112Z,102205.44
2022-12-04T09:38:48.043Z,102210.75
2022-12-04T09:41:33.328Z,102210.03
2022-12-04T09:44:24.618Z,102216.09
2022-12-04T09:47:00.398Z,102215.97
2022-12-04T09:50:05.782Z,102215.97
2022-12-04T09:52:49.054Z,102224.31
2022-12-04T09:55:26.146Z,102215.22
2022-12-04T09:58:01.595Z,102215.94
2022-12-04T10:00:30.119Z,102216.53
2022-12-04T10:03:03.972Z,102220.22
2022-12-04T10:05:49.046Z,102227.47
2022-12-04T10:08:34.677Z,102221.94
2022-12-04T10:11:10.407Z,102221.53
2022-12-04T10:13:52.286Z,102217.94
2022-12-04T10:16:57.462Z,102219.44
2022-12-04T10:19:42.382Z,102211.84
2022-12-04T10:22:46.573Z,102225.38
2022-12-04T10:25:21.096Z,102226.13
2022-12-04T10:28:11.125Z,102224.13
2022-12-04T10:30:43.000Z,102211.72
2022-12-04T10:33:09.624Z,102217.84
2022-12-04T10:35:37.996Z,102217.91
2022-12-04T10:38:12.667Z,102217.75
2022-12-04T10:40:50.639Z,102236.25
2022-12-04T10:43:35.951Z,102238.34
2022-12-04T10:46:02.885Z,102239.47
2022-12-04T10:48:36.015Z,102246.63
2022-12-04T10:51:03.018Z,102248.78
2022-12-04T10:53:32.641Z,102246.09
2022-12-04T10:56:28.913Z,102239.56
2022-12-04T10:59:01.414Z,102242.53
2022-12-04T11:01:30.985Z,102247.00
2022-12-04T11:04:22.794Z,102236.25
2022-12-04T11:06:52.879Z,102238.16
2022-12-04T11:09:24.280Z,102234.66
2022-12-04T11:11:52.141Z,102240.00
2022-12-04T11:14:22.790Z,102241.09
2022-12-04T11:17:01.817Z,102244.41
2022-12-04T11:19:31.443Z,102245.44
2022-12-04T11:22:13.022Z,102246.50
2022-12-04T11:24:42.710Z,102241.97
2022-12-04T11:27:22.703Z,102244.06
2022-12-04T11:29:50.360Z,102235.06
2022-12-04T11:32:22.793Z,102242.22
2022-12-04T11:34:52.610Z,102240.72
2022-12-04T11:37:25.269Z,102237.59
2022-12-04T11:39:54.059Z,102234.22
2022-12-04T11:42:29.529Z,102229.00
2022-12-04T11:44:58.821Z,102237.06
2022-12-04T11:47:28.657Z,102237.75
2022-12-04T11:50:04.319Z,102232.59
2022-12-04T11:53:05.580Z,102225.38
2022-12-04T11:55:46.262Z,102229.66
2022-12-04T11:58:31.808Z,102225.03
2022-12-04T12:01:30.980Z,102220.34
2022-12-04T12:04:19.332Z,102224.22
2022-12-04T12:07:12.195Z,102215.31
2022-12-04T12:09:55.721Z,102220.31
2022-12-04T12:13:09.989Z,102217.53
2022-12-04T12:15:51.092Z,102215.03
2022-12-04T12:18:47.448Z,102215.94
2022-12-04T12:21:33.047Z,102221.16
2022-12-04T12:24:24.641Z,102208.56
2022-12-04T12:27:06.718Z,102198.81
2022-12-04T12:30:10.618Z,102198.44
2022-12-04T12:32:46.321Z,102195.38
2022-12-04T12:35:40.163Z,102197.59
2022-12-04T12:38:11.769Z,102195.06
2022-12-04T12:40:47.531Z,102185.41
2022-12-04T12:43:23.111Z,102180.88
2022-12-04T12:46:01.551Z,102180.03
2022-12-04T12:48:59.042Z,102171.41
2022-12-04T12:51:43.817Z,102171.97
2022-12-04T12:54:41.610Z,102182.22
2022-12-04T12:57:25.088Z,102164.69
2022-12-04T12:59:57.445Z,102161.94
2022-12-04T13:02:48.859Z,102160.53
2022-12-04T13:05:21.829Z,102151.25
2022-12-04T13:08:03.932Z,102149.22
2022-12-04T13:10:40.431Z,102150.19
2022-12-04T13:13:15.884Z,102145.59
2022-12-04T13:16:08.974Z,102141.69
2022-12-04T13:19:15.517Z,102144.56
2022-12-04T13:22:06.282Z,102137.97
2022-12-04T13:24:44.867Z,102132.13
2022-12-04T13:27:22.071Z,102138.59
2022-12-04T13:30:20.829Z,102132.84
2022-12-04T13:36:27.895Z,102135.81
2022-12-04T13:39:22.669Z,102136.41
2022-12-04T13:41:58.919Z,102128.25
2022-12-04T13:44:27.415Z,102126.88
2022-12-04T13:47:03.333Z,102129.13
2022-12-04T13:49:33.797Z,102123.94
2022-12-04T13:52:04.143Z,102126.47
2022-12-04T13:54:36.804Z,102118.84
2022-12-04T13:57:12.630Z,102120.06
2022-12-04T13:59:40.594Z,102111.13
2022-12-04T14:02:37.420Z,102111.19
2022-12-04T14:05:07.712Z,102108.59
2022-12-04T14:07:40.416Z,102126.47
2022-12-04T14:13:23.622Z,102107.28
2022-12-04T14:16:04.813Z,102109.38
2022-12-04T14:18:31.756Z,102100.25
2022-12-04T14:21:05.916Z,102092.34
2022-12-04T14:23:39.659Z,102107.28
2022-12-04T14:26:37.388Z,102098.91
2022-12-04T14:29:27.978Z,102085.84
2022-12-04T14:31:57.853Z,102087.78
2022-12-04T14:34:29.472Z,102071.66
2022-12-04T14:36:57.873Z,102082.59
2022-12-04T14:39:29.456Z,102067.69
2022-12-04T14:42:13.995Z,102071.09
2022-12-04T14:44:41.636Z,102061.50
2022-12-04T14:47:38.363Z,102063.44
2022-12-04T14:50:39.643Z,102060.53
2022-12-04T14:53:35.101Z,102056.13
2022-12-04T14:56:10.971Z,102042.47
2022-12-04T14:58:39.290Z,102041.25
2022-12-04T15:01:23.950Z,102046.91
2022-12-04T15:03:57.023Z,102037.22
2022-12-04T15:06:29.927Z,102037.25
2022-12-04T15:09:19.818Z,102033.06
2022-12-04T15:12:10.727Z,102038.75
2022-12-04T15:14:48.797Z,102034.94
2022-12-04T15:17:18.935Z,102037.75
2022-12-04T15:19:46.131Z,102045.81
2022-12-04T15:22:29.261Z,102036.16
2022-12-04T15:24:59.333Z,102050.25
2022-12-04T15:27:32.402Z,102035.84
2022-12-04T15:30:03.181Z,102037.75
2022-12-04T15:32:32.673Z,102032.41
2022-12-04T15:35:06.066Z,102033.06
2022-12-04T15:37:34.235Z,102029.66
2022-12-04T15:40:07.259Z,102033.06
2022-12-04T15:42:34.410Z,102021.19
2022-12-04T15:45:21.933Z,102011.19
2022-12-04T15:47:48.913Z,102018.38
2022-12-04T15:50:27.643Z,102018.09
2022-12-04T15:53:07.056Z,102007.25
2022-12-04T15:55:49.691Z,102006.44
2022-12-04T15:58:33.270Z,102007.13
2022-12-04T16:01:10.525Z,102003.81
2022-12-04T16:03:43.613Z,102002.38
2022-12-04T16:06:13.480Z,102003.38
2022-12-04T16:08:42.344Z,101993.06
2022-12-04T16:11:18.061Z,102001.28
2022-12-04T16:13:44.825Z,101988.25
2022-12-04T16:16:15.751Z,101979.75
2022-12-04T16:18:43.583Z,101977.19
2022-12-04T16:21:19.052Z,101983.47
2022-12-04T16:23:46.298Z,101981.84
2022-12-04T16:26:14.731Z,101977.19
2022-12-04T16:28:41.951Z,101974.44
2022-12-04T16:31:13.902Z,101973.66
2022-12-04T16:33:41.040Z,101970.00
2022-12-04T16:36:11.174Z,101963.19
2022-12-04T16:38:38.071Z,101973.00
2022-12-04T16:41:05.634Z,101968.44
2022-12-04T16:43:32.535Z,101964.09
2022-12-04T16:46:01.447Z,101965.75
2022-12-04T16:48:29.699Z,101958.84
2022-12-04T16:50:56.487Z,101957.09
2022-12-04T16:53:23.400Z,101941.03
2022-12-04T16:55:51.563Z,101932.25
2022-12-04T16:58:19.739Z,101928.41
2022-12-04T17:00:54.108Z,101899.81
2022-12-04T17:03:33.173Z,101912.34
2022-12-04T17:06:01.113Z,101917.84
2022-12-04T17:08:28.543Z,101906.84
2022-12-04T17:10:55.806Z,101895.31
2022-12-04T17:13:23.176Z,101892.78
2022-12-04T17:15:50.154Z,101869.22
2022-12-04T17:18:21.042Z,101871.44
2022-12-04T17:20:48.572Z,101872.00
2022-12-04T17:23:15.592Z,101866.66
2022-12-04T17:25:42.346Z,101859.13
2022-12-04T17:28:09.309Z,101855.16
2022-12-04T17:30:36.656Z,101853.06
2022-12-04T17:33:04.727Z,101844.16
2022-12-04T17:35:31.773Z,101841.53
2022-12-04T17:38:05.375Z,101833.13
2022-12-04T17:40:33.257Z,101823.59
2022-12-04T17:43:00.063Z,101815.19
2022-12-04T17:45:26.871Z,101815.41
2022-12-04T17:47:53.554Z,101807.13
2022-12-04T17:50:20.339Z,101810.78
2022-12-04T17:52:47.246Z,101793.63
2022-12-04T17:55:14.155Z,101785.50
2022-12-04T17:57:41.048Z,101798.91
2022-12-04T18:00:08.535Z,101777.44
2022-12-04T18:02:36.291Z,101783.63
2022-12-04T18:05:03.484Z,101784.88
2022-12-04T18:07:31.070Z,101775.84
2022-12-04T18:09:58.042Z,101765.84
2022-12-04T18:12:38.401Z,101766.13
2022-12-04T18:15:05.849Z,101757.63
2022-12-04T18:17:32.656Z,101755.84
2022-12-04T18:20:04.149Z,101753.03
2022-12-04T18:22:31.572Z,101748.47
2022-12-04T18:24:58.511Z,101744.59
2022-12-04T18:27:25.368Z,101750.09
2022-12-04T18:29:52.094Z,101754.22
2022-12-04T18:32:18.867Z,101740.97
2022-12-04T18:34:45.644Z,101759.00
2022-12-04T18:37:12.363Z,101746.00
2022-12-04T18:39:39.083Z,101751.44
2022-12-04T18:42:05.888Z,101754.44
2022-12-04T18:44:32.632Z,101754.22
2022-12-04T18:46:59.350Z,101741.31
2022-12-04T18:49:26.099Z,101750.22
2022-12-04T18:51:52.844Z,101750.38
2022-12-04T18:54:22.798Z,101746.00
2022-12-04T18:56:49.882Z,101742.28
2022-12-04T18:59:19.556Z,101749.88
2022-12-04T19:01:46.298Z,101744.97
2022-12-04T19:04:14.608Z,101742.97
2022-12-04T19:06:45.915Z,101739.72
2022-12-04T19:09:17.016Z,101744.13
2022-12-04T19:11:44.386Z,101748.00
2022-12-04T19:14:22.283Z,101738.72
2022-12-04T19:16:49.754Z,101754.91
2022-12-04T19:19:16.897Z,101753.44
2022-12-04T19:21:44.456Z,101752.50
2022-12-04T19:24:11.886Z,101740.97
2022-12-04T19:26:39.214Z,101737.91
2022-12-04T19:29:07.046Z,101743.19
2022-12-04T19:31:35.448Z,101745.75
2022-12-04T19:34:02.803Z,101736.03
2022-12-04T19:36:31.276Z,101731.81
2022-12-04T19:38:58.878Z,101723.53
2022-12-04T19:41:30.105Z,101734.41
2022-12-04T19:44:00.103Z,101731.50
2022-12-04T19:46:30.411Z,101733.47
2022-12-04T19:49:01.890Z,101730.88
2022-12-04T19:51:32.138Z,101730.09
2022-12-04T19:53:59.960Z,101712.50
2022-12-04T19:56:29.073Z,101720.16
2022-12-04T19:58:58.633Z,101721.16
2022-12-04T20:01:28.718Z,101718.38
2022-12-04T20:03:56.846Z,101707.59
2022-12-04T20:06:27.242Z,101712.72
2022-12-04T20:09:00.016Z,101701.16
2022-12-04T20:11:28.918Z,101699.34
2022-12-04T20:13:56.906Z,101699.41
2022-12-04T20:16:25.577Z,101678.03
2022-12-04T20:18:53.242Z,101665.38
2022-12-04T20:21:21.287Z,101655.56
2022-12-04T20:23:50.619Z,101660.84
2022-12-04T20:26:25.942Z,101656.50
2022-12-04T20:28:56.688Z,101652.25
2022-12-04T20:31:29.528Z,101653.81
2022-12-04T20:33:58.100Z,101642.53
2022-12-04T20:36:27.250Z,101618.72
2022-12-04T20:38:58.075Z,101613.09
2022-12-04T20:41:26.579Z,101597.84
2022-12-04T20:43:53.384Z,101598.97
2022-12-04T20:46:21.772Z,101587.06
2022-12-04T20:48:49.735Z,101577.53
2022-12-04T20:51:28.478Z,101580.47
2022-12-04T20:53:58.130Z,101575.25
2022-12-04T20:56:29.674Z,101553.31
2022-12-04T20:58:57.921Z,101556.94
2022-12-04T21:01:25.563Z,101546.97
2022-12-04T21:03:53.293Z,101537.75
2022-12-04T21:06:23.324Z,101540.34
2022-12-04T21:08:53.912Z,101520.16
2022-12-04T21:11:22.535Z,101515.69
2022-12-04T21:14:07.871Z,101516.03
2022-12-04T21:16:34.930Z,101502.69
2022-12-04T21:19:03.479Z,101503.38
2022-12-04T21:21:30.241Z,101493.84
2022-12-04T21:23:57.131Z,101493.72
2022-12-04T21:26:23.919Z,101481.53
2022-12-04T21:28:50.761Z,101469.53
2022-12-04T21:31:17.580Z,101463.34
2022-12-04T21:33:44.278Z,101458.88
2022-12-04T21:36:11.202Z,101460.94
2022-12-04T21:38:39.604Z,101446.28
2022-12-04T21:41:08.288Z,101440.28
2022-12-04T21:43:36.920Z,101438.28
2022-12-04T21:46:09.427Z,101430.06
2022-12-04T21:48:37.175Z,101434.00
2022-12-04T21:51:21.228Z,101412.44
2022-12-04T21:53:55.464Z,101405.13
2022-12-04T21:56:23.051Z,101394.19
2022-12-04T21:58:50.949Z,101402.97
2022-12-04T22:01:19.659Z,101394.25
2022-12-04T22:03:48.671Z,101386.38
2022-12-04T22:06:15.404Z,101383.28
2022-12-04T22:08:42.411Z,101368.78
2022-12-04T22:11:11.147Z,101363.47
2022-12-04T22:13:39.168Z,101362.13
2022-12-04T22:16:08.895Z,101340.56
2022-12-04T22:18:36.358Z,101360.69
2022-12-04T22:21:09.765Z,101349.47
2022-12-04T22:23:37.368Z,101347.75
2022-12-04T22:26:12.602Z,101341.28
2022-12-04T22:28:40.053Z,101339.63
2022-12-04T22:31:09.549Z,101348.03
2022-12-04T22:33:36.734Z,101336.13
2022-12-04T22:36:06.415Z,101330.94
2022-12-04T22:38:42.470Z,101332.34
2022-12-04T22:41:21.556Z,101321.09
2022-12-04T22:43:48.853Z,101290.22
2022-12-04T22:46:16.459Z,101294.94
2022-12-04T22:48:44.440Z,101296.09
2022-12-04T22:51:13.979Z,101298.59
2022-12-04T22:53:49.617Z,101288.47
2022-12-04T22:56:20.214Z,101286.94
2022-12-04T22:58:47.122Z,101285.13
2022-12-04T23:01:19.554Z,101270.50
2022-12-04T23:03:47.519Z,101281.28
2022-12-04T23:06:16.572Z,101261.00
2022-12-04T23:08:44.279Z,101275.47
2022-12-04T23:11:17.690Z,101260.66
2022-12-04T23:13:49.692Z,101263.56
2022-12-04T23:16:20.129Z,101249.41
2022-12-04T23:18:47.819Z,101250.03
2022-12-04T23:21:16.016Z,101242.34
2022-12-04T23:23:44.613Z,101234.41
2022-12-04T23:26:14.934Z,101210.81
2022-12-04T23:28:42.457Z,101201.72
2022-12-04T23:31:10.819Z,101210.00
2022-12-04T23:33:38.746Z,101209.06
2022-12-04T23:36:06.966Z,101203.16
2022-12-04T23:38:36.165Z,101195.44
2022-12-04T23:41:02.952Z,101188.19
2022-12-04T23:43:29.732Z,101185.38
2022-12-04T23:45:56.745Z,101184.47
2022-12-04T23:48:24.131Z,101174.19
2022-12-04T23:50:51.327Z,101164.34
2022-12-04T23:53:18.843Z,101175.94
2022-12-04T23:55:54.806Z,101166.91
2022-12-04T23:58:21.592Z,101156.78
